sensor_id;sensor_type;location;lat;lon;timestamp;temperature;humidity
23873;DHT22;42884;50.718;4.630;2022-09-12T00:01:19;14.70;99.90
23873;DHT22;42884;50.718;4.630;2022-09-12T00:03:46;14.70;99.90
23873;DHT22;42884;50.718;4.630;2022-09-12T00:06:19;14.80;99.90
23873;DHT22;42884;50.718;4.630;2022-09-12T00:08:44;14.70;99.90
23873;DHT22;42884;50.718;4.630;2022-09-12T00:11:11;14.60;99.90
23873;DHT22;42884;50.718;4.630;2022-09-12T00:13:41;14.60;99.90
23873;DHT22;42884;50.718;4.630;2022-09-12T00:16:12;14.60;99.90
23873;DHT22;42884;50.718;4.630;2022-09-12T00:18:38;14.60;99.90
23873;DHT22;42884;50.718;4.630;2022-09-12T00:21:04;14.60;99.90
23873;DHT22;42884;50.718;4.630;2022-09-12T00:23:30;14.50;99.90
23873;DHT22;42884;50.718;4.630;2022-09-12T00:25:56;14.50;99.90
23873;DHT22;42884;50.718;4.630;2022-09-12T00:28:22;14.50;99.90
23873;DHT22;42884;50.718;4.630;2022-09-12T00:30:47;14.50;99.90
23873;DHT22;42884;50.718;4.630;2022-09-12T00:33:14;14.40;99.90
23873;DHT22;42884;50.718;4.630;2022-09-12T00:35:44;14.50;99.90
23873;DHT22;42884;50.718;4.630;2022-09-12T00:38:10;14.40;99.90
23873;DHT22;42884;50.718;4.630;2022-09-12T00:40:36;14.40;99.90
23873;DHT22;42884;50.718;4.630;2022-09-12T00:43:09;14.40;99.90
23873;DHT22;42884;50.718;4.630;2022-09-12T00:45:36;14.40;99.90
23873;DHT22;42884;50.718;4.630;2022-09-12T00:48:02;14.40;99.90
23873;DHT22;42884;50.718;4.630;2022-09-12T00:50:28;14.30;99.90
23873;DHT22;42884;50.718;4.630;2022-09-12T00:53:01;14.30;99.90
23873;DHT22;42884;50.718;4.630;2022-09-12T00:55:37;14.30;99.90
23873;DHT22;42884;50.718;4.630;2022-09-12T00:58:08;14.30;99.90
23873;DHT22;42884;50.718;4.630;2022-09-12T01:00:34;14.20;99.90
23873;DHT22;42884;50.718;4.630;2022-09-12T01:03:02;14.20;99.90
23873;DHT22;42884;50.718;4.630;2022-09-12T01:05:29;14.20;99.90
23873;DHT22;42884;50.718;4.630;2022-09-12T01:07:55;14.20;99.90
23873;DHT22;42884;50.718;4.630;2022-09-12T01:10:21;14.20;99.90
23873;DHT22;42884;50.718;4.630;2022-09-12T01:12:48;14.20;99.90
23873;DHT22;42884;50.718;4.630;2022-09-12T01:15:13;14.10;99.90
23873;DHT22;42884;50.718;4.630;2022-09-12T01:20:25;14.10;99.90
23873;DHT22;42884;50.718;4.630;2022-09-12T01:38:38;14.00;99.90
23873;DHT22;42884;50.718;4.630;2022-09-12T01:43:35;14.00;99.90
23873;DHT22;42884;50.718;4.630;2022-09-12T01:46:06;13.90;99.90
23873;DHT22;42884;50.718;4.630;2022-09-12T01:51:41;13.90;99.90
23873;DHT22;42884;50.718;4.630;2022-09-12T01:54:08;13.90;99.90
23873;DHT22;42884;50.718;4.630;2022-09-12T01:56:38;13.90;99.90
23873;DHT22;42884;50.718;4.630;2022-09-12T01:59:09;13.90;99.90
23873;DHT22;42884;50.718;4.630;2022-09-12T02:01:40;13.90;99.90
23873;DHT22;42884;50.718;4.630;2022-09-12T02:04:20;13.90;99.90
23873;DHT22;42884;50.718;4.630;2022-09-12T02:06:54;13.80;99.90
23873;DHT22;42884;50.718;4.630;2022-09-12T02:09:28;13.80;99.90
23873;DHT22;42884;50.718;4.630;2022-09-12T02:11:57;13.80;99.90
23873;DHT22;42884;50.718;4.630;2022-09-12T02:14:24;13.80;99.90
23873;DHT22;42884;50.718;4.630;2022-09-12T02:19:23;13.90;99.90
23873;DHT22;42884;50.718;4.630;2022-09-12T02:21:52;13.80;99.90
23873;DHT22;42884;50.718;4.630;2022-09-12T02:24:18;13.80;99.90
23873;DHT22;42884;50.718;4.630;2022-09-12T02:26:56;13.80;99.90
23873;DHT22;42884;50.718;4.630;2022-09-12T02:29:22;13.80;99.90
23873;DHT22;42884;50.718;4.630;2022-09-12T02:31:56;13.80;99.90
23873;DHT22;42884;50.718;4.630;2022-09-12T02:34:30;13.80;99.90
23873;DHT22;42884;50.718;4.630;2022-09-12T02:37:17;13.80;99.90
23873;DHT22;42884;50.718;4.630;2022-09-12T02:39:46;13.80;99.90
23873;DHT22;42884;50.718;4.630;2022-09-12T02:42:19;13.70;99.90
23873;DHT22;42884;50.718;4.630;2022-09-12T02:44:45;13.70;99.90
23873;DHT22;42884;50.718;4.630;2022-09-12T02:47:15;13.70;99.90
23873;DHT22;42884;50.718;4.630;2022-09-12T02:49:42;13.70;99.90
23873;DHT22;42884;50.718;4.630;2022-09-12T02:52:08;13.60;99.90
23873;DHT22;42884;50.718;4.630;2022-09-12T02:54:33;13.70;99.90
23873;DHT22;42884;50.718;4.630;2022-09-12T02:57:00;13.60;99.90
23873;DHT22;42884;50.718;4.630;2022-09-12T02:59:30;13.60;99.90
23873;DHT22;42884;50.718;4.630;2022-09-12T03:04:50;13.60;99.90
23873;DHT22;42884;50.718;4.630;2022-09-12T03:07:25;13.60;99.90
23873;DHT22;42884;50.718;4.630;2022-09-12T03:15:02;13.60;99.90
23873;DHT22;42884;50.718;4.630;2022-09-12T03:17:36;13.50;99.90
23873;DHT22;42884;50.718;4.630;2022-09-12T03:20:10;13.50;99.90
23873;DHT22;42884;50.718;4.630;2022-09-12T03:28:00;13.40;99.90
23873;DHT22;42884;50.718;4.630;2022-09-12T03:30:30;13.40;99.90
23873;DHT22;42884;50.718;4.630;2022-09-12T03:32:56;13.40;99.90
23873;DHT22;42884;50.718;4.630;2022-09-12T03:35:22;13.40;99.90
23873;DHT22;42884;50.718;4.630;2022-09-12T03:37:49;13.30;99.90
23873;DHT22;42884;50.718;4.630;2022-09-12T03:40:14;13.40;99.90
23873;DHT22;42884;50.718;4.630;2022-09-12T03:42:40;13.30;99.90
23873;DHT22;42884;50.718;4.630;2022-09-12T03:45:10;13.30;99.90
23873;DHT22;42884;50.718;4.630;2022-09-12T03:47:35;13.30;99.90
23873;DHT22;42884;50.718;4.630;2022-09-12T03:50:04;13.30;99.90
23873;DHT22;42884;50.718;4.630;2022-09-12T03:52:31;13.30;99.90
23873;DHT22;42884;50.718;4.630;2022-09-12T03:54:59;13.30;99.90
23873;DHT22;42884;50.718;4.630;2022-09-12T03:57:29;13.20;99.90
23873;DHT22;42884;50.718;4.630;2022-09-12T03:59:54;13.20;99.90
23873;DHT22;42884;50.718;4.630;2022-09-12T04:02:23;13.20;99.90
23873;DHT22;42884;50.718;4.630;2022-09-12T04:04:51;13.10;99.90
23873;DHT22;42884;50.718;4.630;2022-09-12T04:07:17;13.10;99.90
23873;DHT22;42884;50.718;4.630;2022-09-12T04:09:54;13.20;99.90
23873;DHT22;42884;50.718;4.630;2022-09-12T04:12:23;13.10;99.90
23873;DHT22;42884;50.718;4.630;2022-09-12T04:14:49;13.10;99.90
23873;DHT22;42884;50.718;4.630;2022-09-12T04:17:14;13.10;99.90
23873;DHT22;42884;50.718;4.630;2022-09-12T04:19:40;13.10;99.90
23873;DHT22;42884;50.718;4.630;2022-09-12T04:22:05;13.10;99.90
23873;DHT22;42884;50.718;4.630;2022-09-12T04:24:31;13.00;99.90
23873;DHT22;42884;50.718;4.630;2022-09-12T04:26:57;13.00;99.90
23873;DHT22;42884;50.718;4.630;2022-09-12T04:29:22;12.90;99.90
23873;DHT22;42884;50.718;4.630;2022-09-12T04:31:48;12.90;99.90
23873;DHT22;42884;50.718;4.630;2022-09-12T04:34:13;12.90;99.90
23873;DHT22;42884;50.718;4.630;2022-09-12T04:36:40;12.90;99.90
23873;DHT22;42884;50.718;4.630;2022-09-12T04:39:06;12.90;99.90
23873;DHT22;42884;50.718;4.630;2022-09-12T04:41:33;12.90;99.90
23873;DHT22;42884;50.718;4.630;2022-09-12T04:44:00;12.90;99.90
23873;DHT22;42884;50.718;4.630;2022-09-12T04:46:27;12.90;99.90
23873;DHT22;42884;50.718;4.630;2022-09-12T04:48:54;12.90;99.90
23873;DHT22;42884;50.718;4.630;2022-09-12T04:51:26;12.90;99.90
23873;DHT22;42884;50.718;4.630;2022-09-12T04:53:53;12.90;99.90
23873;DHT22;42884;50.718;4.630;2022-09-12T04:56:20;12.80;99.90
23873;DHT22;42884;50.718;4.630;2022-09-12T04:58:50;12.80;99.90
23873;DHT22;42884;50.718;4.630;2022-09-12T05:01:16;12.90;99.90
23873;DHT22;42884;50.718;4.630;2022-09-12T05:03:43;12.80;99.90
23873;DHT22;42884;50.718;4.630;2022-09-12T05:06:10;12.80;99.90
23873;DHT22;42884;50.718;4.630;2022-09-12T05:08:36;12.80;99.90
23873;DHT22;42884;50.718;4.630;2022-09-12T05:11:06;12.80;99.90
23873;DHT22;42884;50.718;4.630;2022-09-12T05:13:35;12.80;99.90
23873;DHT22;42884;50.718;4.630;2022-09-12T05:16:06;12.80;99.90
23873;DHT22;42884;50.718;4.630;2022-09-12T05:18:35;12.80;99.90
23873;DHT22;42884;50.718;4.630;2022-09-12T05:21:02;12.80;99.90
23873;DHT22;42884;50.718;4.630;2022-09-12T05:23:28;12.70;99.90
23873;DHT22;42884;50.718;4.630;2022-09-12T05:25:58;12.70;99.90
23873;DHT22;42884;50.718;4.630;2022-09-12T05:28:24;12.70;99.90
23873;DHT22;42884;50.718;4.630;2022-09-12T05:31:12;12.70;99.90
23873;DHT22;42884;50.718;4.630;2022-09-12T05:33:41;12.70;99.90
23873;DHT22;42884;50.718;4.630;2022-09-12T05:36:26;12.70;99.90
23873;DHT22;42884;50.718;4.630;2022-09-12T05:38:58;12.70;99.90
23873;DHT22;42884;50.718;4.630;2022-09-12T05:41:24;12.70;99.90
23873;DHT22;42884;50.718;4.630;2022-09-12T05:43:52;12.70;99.90
23873;DHT22;42884;50.718;4.630;2022-09-12T05:46:18;12.70;99.90
23873;DHT22;42884;50.718;4.630;2022-09-12T05:48:44;12.70;99.90
23873;DHT22;42884;50.718;4.630;2022-09-12T05:51:11;12.70;99.90
23873;DHT22;42884;50.718;4.630;2022-09-12T05:53:37;12.70;99.90
23873;DHT22;42884;50.718;4.630;2022-09-12T05:56:04;12.70;99.90
23873;DHT22;42884;50.718;4.630;2022-09-12T05:58:35;12.80;99.90
23873;DHT22;42884;50.718;4.630;2022-09-12T06:01:01;12.80;99.90
23873;DHT22;42884;50.718;4.630;2022-09-12T06:03:27;12.80;99.90
23873;DHT22;42884;50.718;4.630;2022-09-12T06:05:56;12.80;99.90
23873;DHT22;42884;50.718;4.630;2022-09-12T06:08:21;12.90;99.90
23873;DHT22;42884;50.718;4.630;2022-09-12T06:10:48;13.00;99.90
23873;DHT22;42884;50.718;4.630;2022-09-12T06:13:17;13.00;99.90
23873;DHT22;42884;50.718;4.630;2022-09-12T06:15:42;13.00;99.90
23873;DHT22;42884;50.718;4.630;2022-09-12T06:18:08;13.10;99.90
23873;DHT22;42884;50.718;4.630;2022-09-12T06:20:34;13.20;99.90
23873;DHT22;42884;50.718;4.630;2022-09-12T06:23:01;13.20;99.90
23873;DHT22;42884;50.718;4.630;2022-09-12T06:25:26;13.20;99.90
23873;DHT22;42884;50.718;4.630;2022-09-12T06:27:52;13.30;99.90
23873;DHT22;42884;50.718;4.630;2022-09-12T06:30:17;13.30;99.90
23873;DHT22;42884;50.718;4.630;2022-09-12T06:32:47;13.40;99.90
23873;DHT22;42884;50.718;4.630;2022-09-12T06:35:26;13.50;99.90
23873;DHT22;42884;50.718;4.630;2022-09-12T06:37:51;13.60;99.90
23873;DHT22;42884;50.718;4.630;2022-09-12T06:40:17;13.70;99.90
23873;DHT22;42884;50.718;4.630;2022-09-12T06:42:42;13.80;99.90
23873;DHT22;42884;50.718;4.630;2022-09-12T06:45:08;13.90;99.90
23873;DHT22;42884;50.718;4.630;2022-09-12T06:47:35;14.00;99.90
23873;DHT22;42884;50.718;4.630;2022-09-12T06:50:01;14.10;99.90
23873;DHT22;42884;50.718;4.630;2022-09-12T06:52:27;14.20;99.90
23873;DHT22;42884;50.718;4.630;2022-09-12T06:54:53;14.30;99.90
23873;DHT22;42884;50.718;4.630;2022-09-12T06:57:18;14.50;99.90
23873;DHT22;42884;50.718;4.630;2022-09-12T06:59:44;14.60;99.90
23873;DHT22;42884;50.718;4.630;2022-09-12T07:02:10;14.70;99.90
23873;DHT22;42884;50.718;4.630;2022-09-12T07:04:35;14.80;99.90
23873;DHT22;42884;50.718;4.630;2022-09-12T07:07:01;15.00;99.90
23873;DHT22;42884;50.718;4.630;2022-09-12T07:09:26;15.10;99.90
23873;DHT22;42884;50.718;4.630;2022-09-12T07:11:53;15.20;99.90
23873;DHT22;42884;50.718;4.630;2022-09-12T07:14:19;15.40;99.90
23873;DHT22;42884;50.718;4.630;2022-09-12T07:16:45;15.50;99.90
23873;DHT22;42884;50.718;4.630;2022-09-12T07:19:10;15.60;99.90
23873;DHT22;42884;50.718;4.630;2022-09-12T07:21:36;15.80;99.90
23873;DHT22;42884;50.718;4.630;2022-09-12T07:24:04;15.90;99.90
23873;DHT22;42884;50.718;4.630;2022-09-12T07:26:29;16.00;99.90
23873;DHT22;42884;50.718;4.630;2022-09-12T07:28:56;16.10;99.90
23873;DHT22;42884;50.718;4.630;2022-09-12T07:31:22;16.30;99.90
23873;DHT22;42884;50.718;4.630;2022-09-12T07:33:48;16.40;99.90
23873;DHT22;42884;50.718;4.630;2022-09-12T07:36:15;16.50;99.90
23873;DHT22;42884;50.718;4.630;2022-09-12T07:38:41;16.60;99.90
23873;DHT22;42884;50.718;4.630;2022-09-12T07:41:16;16.70;99.90
23873;DHT22;42884;50.718;4.630;2022-09-12T07:43:42;16.70;99.90
23873;DHT22;42884;50.718;4.630;2022-09-12T07:46:08;16.90;99.90
23873;DHT22;42884;50.718;4.630;2022-09-12T07:48:34;17.10;99.90
23873;DHT22;42884;50.718;4.630;2022-09-12T07:51:01;17.20;99.90
23873;DHT22;42884;50.718;4.630;2022-09-12T07:53:31;17.40;99.90
23873;DHT22;42884;50.718;4.630;2022-09-12T07:55:57;17.60;99.90
23873;DHT22;42884;50.718;4.630;2022-09-12T07:58:23;17.80;99.90
23873;DHT22;42884;50.718;4.630;2022-09-12T08:00:48;17.90;99.90
23873;DHT22;42884;50.718;4.630;2022-09-12T08:03:14;18.10;99.90
23873;DHT22;42884;50.718;4.630;2022-09-12T08:05:40;18.30;99.90
23873;DHT22;42884;50.718;4.630;2022-09-12T08:08:05;18.50;99.90
23873;DHT22;42884;50.718;4.630;2022-09-12T08:10:31;18.60;99.90
23873;DHT22;42884;50.718;4.630;2022-09-12T08:12:57;18.80;99.90
23873;DHT22;42884;50.718;4.630;2022-09-12T08:15:22;19.10;99.90
23873;DHT22;42884;50.718;4.630;2022-09-12T08:17:48;19.30;99.90
23873;DHT22;42884;50.718;4.630;2022-09-12T08:20:13;19.60;99.90
23873;DHT22;42884;50.718;4.630;2022-09-12T08:22:39;19.70;99.90
23873;DHT22;42884;50.718;4.630;2022-09-12T08:25:05;19.90;99.90
23873;DHT22;42884;50.718;4.630;2022-09-12T08:27:31;20.00;99.90
23873;DHT22;42884;50.718;4.630;2022-09-12T08:29:56;20.20;99.90
23873;DHT22;42884;50.718;4.630;2022-09-12T08:32:22;20.50;99.90
23873;DHT22;42884;50.718;4.630;2022-09-12T08:34:48;21.00;99.90
23873;DHT22;42884;50.718;4.630;2022-09-12T08:37:13;21.20;99.90
23873;DHT22;42884;50.718;4.630;2022-09-12T08:39:39;21.40;99.90
23873;DHT22;42884;50.718;4.630;2022-09-12T08:42:08;21.70;99.90
23873;DHT22;42884;50.718;4.630;2022-09-12T08:49:48;22.90;99.90
23873;DHT22;42884;50.718;4.630;2022-09-12T08:52:24;23.60;99.90
23873;DHT22;42884;50.718;4.630;2022-09-12T08:54:50;23.90;99.90
23873;DHT22;42884;50.718;4.630;2022-09-12T08:57:16;24.60;99.90
23873;DHT22;42884;50.718;4.630;2022-09-12T08:59:43;25.20;99.90
23873;DHT22;42884;50.718;4.630;2022-09-12T09:04:51;26.30;99.90
23873;DHT22;42884;50.718;4.630;2022-09-12T09:07:21;26.20;99.90
23873;DHT22;42884;50.718;4.630;2022-09-12T09:14:54;26.50;99.90
23873;DHT22;42884;50.718;4.630;2022-09-12T09:17:25;27.00;99.90
23873;DHT22;42884;50.718;4.630;2022-09-12T09:22:51;28.20;99.90
23873;DHT22;42884;50.718;4.630;2022-09-12T09:25:39;28.80;99.90
23873;DHT22;42884;50.718;4.630;2022-09-12T09:28:20;29.10;99.90
23873;DHT22;42884;50.718;4.630;2022-09-12T09:30:46;29.50;99.90
23873;DHT22;42884;50.718;4.630;2022-09-12T09:33:20;29.60;99.80
23873;DHT22;42884;50.718;4.630;2022-09-12T09:35:47;30.00;99.90
23873;DHT22;42884;50.718;4.630;2022-09-12T09:41:04;30.40;98.30
23873;DHT22;42884;50.718;4.630;2022-09-12T09:43:30;31.20;98.80
23873;DHT22;42884;50.718;4.630;2022-09-12T09:45:56;31.70;96.90
23873;DHT22;42884;50.718;4.630;2022-09-12T09:50:49;32.20;95.90
23873;DHT22;42884;50.718;4.630;2022-09-12T09:58:42;33.00;94.00
23873;DHT22;42884;50.718;4.630;2022-09-12T10:01:12;33.20;93.00
23873;DHT22;42884;50.718;4.630;2022-09-12T10:03:38;32.10;91.90
23873;DHT22;42884;50.718;4.630;2022-09-12T10:08:33;32.90;91.10
23873;DHT22;42884;50.718;4.630;2022-09-12T10:13:34;33.30;92.30
23873;DHT22;42884;50.718;4.630;2022-09-12T10:16:02;32.90;90.40
23873;DHT22;42884;50.718;4.630;2022-09-12T10:18:36;32.80;91.00
23873;DHT22;42884;50.718;4.630;2022-09-12T10:21:07;32.90;90.60
23873;DHT22;42884;50.718;4.630;2022-09-12T10:23:36;33.40;91.80
23873;DHT22;42884;50.718;4.630;2022-09-12T10:26:12;33.20;90.70
23873;DHT22;42884;50.718;4.630;2022-09-12T10:31:04;33.60;90.60
23873;DHT22;42884;50.718;4.630;2022-09-12T10:33:30;33.40;88.40
23873;DHT22;42884;50.718;4.630;2022-09-12T10:35:59;33.40;87.00
23873;DHT22;42884;50.718;4.630;2022-09-12T10:38:26;33.20;88.00
23873;DHT22;42884;50.718;4.630;2022-09-12T10:41:07;33.30;89.30
23873;DHT22;42884;50.718;4.630;2022-09-12T10:48:41;34.30;86.00
23873;DHT22;42884;50.718;4.630;2022-09-12T10:51:14;34.10;84.60
23873;DHT22;42884;50.718;4.630;2022-09-12T10:53:53;33.60;85.00
23873;DHT22;42884;50.718;4.630;2022-09-12T10:56:21;33.80;86.00
23873;DHT22;42884;50.718;4.630;2022-09-12T11:06:29;32.70;84.10
23873;DHT22;42884;50.718;4.630;2022-09-12T11:09:15;32.50;84.00
23873;DHT22;42884;50.718;4.630;2022-09-12T11:14:32;32.60;84.40
23873;DHT22;42884;50.718;4.630;2022-09-12T11:27:45;31.70;84.60
23873;DHT22;42884;50.718;4.630;2022-09-12T11:35:29;30.90;88.40
23873;DHT22;42884;50.718;4.630;2022-09-12T11:40:37;31.30;86.00
23873;DHT22;42884;50.718;4.630;2022-09-12T11:43:51;31.40;85.70
23873;DHT22;42884;50.718;4.630;2022-09-12T11:45:50;31.20;84.90
23873;DHT22;42884;50.718;4.630;2022-09-12T11:50:45;31.20;85.50
23873;DHT22;42884;50.718;4.630;2022-09-12T11:53:16;30.60;85.70
23873;DHT22;42884;50.718;4.630;2022-09-12T11:55:51;30.60;84.80
23873;DHT22;42884;50.718;4.630;2022-09-12T11:58:18;31.00;82.50
23873;DHT22;42884;50.718;4.630;2022-09-12T12:00:46;31.50;85.50
23873;DHT22;42884;50.718;4.630;2022-09-12T12:05:53;32.10;83.00
23873;DHT22;42884;50.718;4.630;2022-09-12T12:08:20;31.50;87.40
23873;DHT22;42884;50.718;4.630;2022-09-12T12:10:53;31.40;82.70
23873;DHT22;42884;50.718;4.630;2022-09-12T12:15:53;31.60;85.60
23873;DHT22;42884;50.718;4.630;2022-09-12T12:18:24;31.70;84.90
23873;DHT22;42884;50.718;4.630;2022-09-12T12:20:50;31.60;82.10
23873;DHT22;42884;50.718;4.630;2022-09-12T12:23:30;31.80;81.40
23873;DHT22;42884;50.718;4.630;2022-09-12T12:25:57;31.40;80.60
23873;DHT22;42884;50.718;4.630;2022-09-12T12:28:54;31.70;82.10
23873;DHT22;42884;50.718;4.630;2022-09-12T12:31:21;31.50;79.30
23873;DHT22;42884;50.718;4.630;2022-09-12T12:36:28;32.30;84.80
23873;DHT22;42884;50.718;4.630;2022-09-12T12:38:54;32.50;83.50
23873;DHT22;42884;50.718;4.630;2022-09-12T12:43:46;31.90;81.50
23873;DHT22;42884;50.718;4.630;2022-09-12T12:46:13;32.10;84.40
23873;DHT22;42884;50.718;4.630;2022-09-12T12:48:43;32.80;83.10
23873;DHT22;42884;50.718;4.630;2022-09-12T12:51:15;32.90;81.10
23873;DHT22;42884;50.718;4.630;2022-09-12T12:53:41;33.00;82.90
23873;DHT22;42884;50.718;4.630;2022-09-12T12:56:22;33.30;82.10
23873;DHT22;42884;50.718;4.630;2022-09-12T12:58:49;33.10;82.70
23873;DHT22;42884;50.718;4.630;2022-09-12T13:01:21;32.60;80.50
23873;DHT22;42884;50.718;4.630;2022-09-12T13:03:54;32.30;78.90
23873;DHT22;42884;50.718;4.630;2022-09-12T13:06:43;32.60;81.90
23873;DHT22;42884;50.718;4.630;2022-09-12T13:09:08;32.90;80.90
23873;DHT22;42884;50.718;4.630;2022-09-12T13:11:42;32.70;81.20
23873;DHT22;42884;50.718;4.630;2022-09-12T13:16:55;31.80;82.10
23873;DHT22;42884;50.718;4.630;2022-09-12T13:19:31;32.30;82.80
23873;DHT22;42884;50.718;4.630;2022-09-12T13:22:07;32.70;82.90
23873;DHT22;42884;50.718;4.630;2022-09-12T13:24:34;32.90;81.40
23873;DHT22;42884;50.718;4.630;2022-09-12T13:27:20;32.90;81.30
23873;DHT22;42884;50.718;4.630;2022-09-12T13:29:45;32.50;80.10
23873;DHT22;42884;50.718;4.630;2022-09-12T13:32:11;32.30;78.80
23873;DHT22;42884;50.718;4.630;2022-09-12T13:34:47;31.80;78.60
23873;DHT22;42884;50.718;4.630;2022-09-12T13:39:49;32.00;80.10
23873;DHT22;42884;50.718;4.630;2022-09-12T13:42:29;32.50;79.60
23873;DHT22;42884;50.718;4.630;2022-09-12T13:47:40;32.50;77.80
23873;DHT22;42884;50.718;4.630;2022-09-12T13:50:06;32.50;80.30
23873;DHT22;42884;50.718;4.630;2022-09-12T13:52:33;32.80;81.90
23873;DHT22;42884;50.718;4.630;2022-09-12T13:54:59;32.80;82.00
23873;DHT22;42884;50.718;4.630;2022-09-12T13:57:30;33.40;79.00
23873;DHT22;42884;50.718;4.630;2022-09-12T13:59:57;33.40;80.30
23873;DHT22;42884;50.718;4.630;2022-09-12T14:02:24;33.30;75.30
23873;DHT22;42884;50.718;4.630;2022-09-12T14:04:51;33.10;76.80
23873;DHT22;42884;50.718;4.630;2022-09-12T14:07:53;32.90;79.20
23873;DHT22;42884;50.718;4.630;2022-09-12T14:13:22;33.10;79.80
23873;DHT22;42884;50.718;4.630;2022-09-12T14:15:49;33.20;79.80
23873;DHT22;42884;50.718;4.630;2022-09-12T14:18:22;33.20;76.50
23873;DHT22;42884;50.718;4.630;2022-09-12T14:20:48;33.20;77.50
23873;DHT22;42884;50.718;4.630;2022-09-12T14:25:51;33.20;76.50
23873;DHT22;42884;50.718;4.630;2022-09-12T14:28:18;32.60;77.90
23873;DHT22;42884;50.718;4.630;2022-09-12T14:33:44;32.70;77.40
23873;DHT22;42884;50.718;4.630;2022-09-12T14:36:16;32.90;78.40
23873;DHT22;42884;50.718;4.630;2022-09-12T14:38:43;32.70;76.10
23873;DHT22;42884;50.718;4.630;2022-09-12T14:41:10;32.70;74.50
23873;DHT22;42884;50.718;4.630;2022-09-12T14:43:38;32.80;76.50
23873;DHT22;42884;50.718;4.630;2022-09-12T14:46:13;32.70;76.20
23873;DHT22;42884;50.718;4.630;2022-09-12T14:48:41;32.90;75.70
23873;DHT22;42884;50.718;4.630;2022-09-12T14:51:07;32.70;75.90
23873;DHT22;42884;50.718;4.630;2022-09-12T14:53:34;32.60;74.60
23873;DHT22;42884;50.718;4.630;2022-09-12T14:58:32;32.20;76.20
23873;DHT22;42884;50.718;4.630;2022-09-12T15:03:30;31.90;76.10
23873;DHT22;42884;50.718;4.630;2022-09-12T15:05:56;32.20;77.60
23873;DHT22;42884;50.718;4.630;2022-09-12T15:08:22;32.20;75.50
23873;DHT22;42884;50.718;4.630;2022-09-12T15:10:48;32.20;77.50
23873;DHT22;42884;50.718;4.630;2022-09-12T15:13:18;32.30;76.10
23873;DHT22;42884;50.718;4.630;2022-09-12T15:15:45;32.10;76.00
23873;DHT22;42884;50.718;4.630;2022-09-12T15:18:11;31.70;75.60
23873;DHT22;42884;50.718;4.630;2022-09-12T15:20:38;31.60;77.00
23873;DHT22;42884;50.718;4.630;2022-09-12T15:23:05;31.90;77.00
23873;DHT22;42884;50.718;4.630;2022-09-12T15:25:32;31.90;76.40
23873;DHT22;42884;50.718;4.630;2022-09-12T15:27:57;31.70;76.20
23873;DHT22;42884;50.718;4.630;2022-09-12T15:30:24;31.90;79.90
23873;DHT22;42884;50.718;4.630;2022-09-12T15:32:50;31.60;77.50
23873;DHT22;42884;50.718;4.630;2022-09-12T15:35:16;31.60;76.60
23873;DHT22;42884;50.718;4.630;2022-09-12T15:37:42;31.60;77.80
23873;DHT22;42884;50.718;4.630;2022-09-12T15:40:08;31.30;78.20
23873;DHT22;42884;50.718;4.630;2022-09-12T15:42:34;31.20;79.40
23873;DHT22;42884;50.718;4.630;2022-09-12T15:45:09;30.90;78.20
23873;DHT22;42884;50.718;4.630;2022-09-12T15:47:38;30.80;78.70
23873;DHT22;42884;50.718;4.630;2022-09-12T15:50:04;30.80;78.10
23873;DHT22;42884;50.718;4.630;2022-09-12T15:52:30;30.80;80.40
23873;DHT22;42884;50.718;4.630;2022-09-12T15:54:56;30.80;81.60
23873;DHT22;42884;50.718;4.630;2022-09-12T15:57:21;30.80;79.00
23873;DHT22;42884;50.718;4.630;2022-09-12T15:59:47;30.80;80.90
23873;DHT22;42884;50.718;4.630;2022-09-12T16:02:12;30.70;80.40
23873;DHT22;42884;50.718;4.630;2022-09-12T16:04:38;30.50;79.30
23873;DHT22;42884;50.718;4.630;2022-09-12T16:07:04;30.40;80.70
23873;DHT22;42884;50.718;4.630;2022-09-12T16:09:29;30.20;79.90
23873;DHT22;42884;50.718;4.630;2022-09-12T16:11:55;30.10;81.50
23873;DHT22;42884;50.718;4.630;2022-09-12T16:14:20;30.30;82.90
23873;DHT22;42884;50.718;4.630;2022-09-12T16:16:52;30.40;82.50
23873;DHT22;42884;50.718;4.630;2022-09-12T16:19:19;30.40;83.10
23873;DHT22;42884;50.718;4.630;2022-09-12T16:21:44;30.20;80.90
23873;DHT22;42884;50.718;4.630;2022-09-12T16:24:10;30.10;83.10
23873;DHT22;42884;50.718;4.630;2022-09-12T16:26:36;30.00;84.10
23873;DHT22;42884;50.718;4.630;2022-09-12T16:29:01;29.80;81.40
23873;DHT22;42884;50.718;4.630;2022-09-12T16:31:27;29.70;84.00
23873;DHT22;42884;50.718;4.630;2022-09-12T16:33:53;29.60;82.40
23873;DHT22;42884;50.718;4.630;2022-09-12T16:36:19;29.60;83.30
23873;DHT22;42884;50.718;4.630;2022-09-12T16:38:48;29.60;86.30
23873;DHT22;42884;50.718;4.630;2022-09-12T16:41:15;29.60;87.70
23873;DHT22;42884;50.718;4.630;2022-09-12T16:43:41;29.40;87.70
23873;DHT22;42884;50.718;4.630;2022-09-12T16:46:11;29.40;90.20
23873;DHT22;42884;50.718;4.630;2022-09-12T16:48:41;29.30;90.90
23873;DHT22;42884;50.718;4.630;2022-09-12T16:51:07;29.30;90.90
23873;DHT22;42884;50.718;4.630;2022-09-12T16:53:33;29.00;90.10
23873;DHT22;42884;50.718;4.630;2022-09-12T16:55:59;29.00;88.80
23873;DHT22;42884;50.718;4.630;2022-09-12T16:58:25;28.90;89.90
23873;DHT22;42884;50.718;4.630;2022-09-12T17:01:00;28.70;88.30
23873;DHT22;42884;50.718;4.630;2022-09-12T17:03:27;28.60;88.10
23873;DHT22;42884;50.718;4.630;2022-09-12T17:05:56;28.60;89.50
23873;DHT22;42884;50.718;4.630;2022-09-12T17:08:22;28.50;91.20
23873;DHT22;42884;50.718;4.630;2022-09-12T17:10:47;28.40;91.30
23873;DHT22;42884;50.718;4.630;2022-09-12T17:13:13;28.30;91.90
23873;DHT22;42884;50.718;4.630;2022-09-12T17:15:39;28.10;93.20
23873;DHT22;42884;50.718;4.630;2022-09-12T17:18:05;27.90;91.00
23873;DHT22;42884;50.718;4.630;2022-09-12T17:20:33;27.80;91.40
23873;DHT22;42884;50.718;4.630;2022-09-12T17:22:59;27.60;88.80
23873;DHT22;42884;50.718;4.630;2022-09-12T17:25:25;27.50;92.20
23873;DHT22;42884;50.718;4.630;2022-09-12T17:27:52;27.30;92.60
23873;DHT22;42884;50.718;4.630;2022-09-12T17:30:17;27.20;93.00
23873;DHT22;42884;50.718;4.630;2022-09-12T17:32:43;27.20;93.00
23873;DHT22;42884;50.718;4.630;2022-09-12T17:35:08;26.90;92.90
23873;DHT22;42884;50.718;4.630;2022-09-12T17:37:35;26.80;93.40
23873;DHT22;42884;50.718;4.630;2022-09-12T17:40:01;26.60;95.00
23873;DHT22;42884;50.718;4.630;2022-09-12T17:42:27;26.40;95.50
23873;DHT22;42884;50.718;4.630;2022-09-12T17:44:53;26.20;94.90
23873;DHT22;42884;50.718;4.630;2022-09-12T17:47:19;26.00;95.20
23873;DHT22;42884;50.718;4.630;2022-09-12T17:49:45;25.80;96.20
23873;DHT22;42884;50.718;4.630;2022-09-12T17:52:11;25.70;95.70
23873;DHT22;42884;50.718;4.630;2022-09-12T17:54:37;25.50;95.60
23873;DHT22;42884;50.718;4.630;2022-09-12T17:57:04;25.30;95.60
23873;DHT22;42884;50.718;4.630;2022-09-12T17:59:29;25.10;96.30